createdAt,value
2022-12-27T00:00:41.732Z,6.57
2022-12-27T00:03:09.597Z,7.90
2022-12-27T00:05:39.534Z,3.77
2022-12-27T00:08:08.649Z,6.60
2022-12-27T00:10:36.473Z,6.77
2022-12-27T00:13:04.163Z,5.03
2022-12-27T00:15:33.816Z,4.67
2022-12-27T00:18:01.512Z,4.33
2022-12-27T00:20:29.452Z,3.40
2022-12-27T00:22:57.723Z,6.70
2022-12-27T00:25:26.736Z,5.23
2022-12-27T00:27:54.440Z,4.27
2022-12-27T00:30:22.111Z,6.30
2022-12-27T00:32:49.807Z,6.20
2022-12-27T00:35:17.557Z,5.70
2022-12-27T00:37:45.224Z,6.50
2022-12-27T00:40:13.593Z,5.50
2022-12-27T00:42:42.592Z,8.40
2022-12-27T00:45:11.564Z,7.77
2022-12-27T00:47:40.186Z,4.80
2022-12-27T00:50:08.237Z,2.27
2022-12-27T00:52:35.902Z,6.77
2022-12-27T00:55:03.660Z,4.17
2022-12-27T00:57:31.336Z,3.63
2022-12-27T01:00:04.700Z,8.93
2022-12-27T01:02:35.734Z,5.93
2022-12-27T01:05:03.382Z,5.20
2022-12-27T01:07:31.139Z,3.10
2022-12-27T01:09:58.794Z,4.70
2022-12-27T01:12:26.524Z,6.53
2022-12-27T01:14:54.287Z,8.83
2022-12-27T01:17:23.329Z,3.97
2022-12-27T01:19:50.976Z,4.47
2022-12-27T01:22:18.731Z,4.23
2022-12-27T01:24:46.395Z,7.87
2022-12-27T01:27:14.145Z,8.77
2022-12-27T01:29:41.796Z,10.37
2022-12-27T01:32:09.709Z,6.93
2022-12-27T01:34:38.789Z,5.73
2022-12-27T01:37:06.480Z,7.57
2022-12-27T01:39:34.086Z,8.37
2022-12-27T01:42:19.466Z,8.07
2022-12-27T01:44:57.625Z,15.47
2022-12-27T01:47:35.963Z,14.80
2022-12-27T01:50:10.496Z,13.03
2022-12-27T01:52:41.956Z,9.73
2022-12-27T01:55:15.658Z,12.77
2022-12-27T01:57:43.438Z,11.87
2022-12-27T02:00:12.767Z,20.03
2022-12-27T02:02:41.379Z,14.23
2022-12-27T02:05:12.426Z,11.70
2022-12-27T02:07:48.843Z,8.57
2022-12-27T02:10:17.676Z,12.40
2022-12-27T02:12:45.434Z,13.83
2022-12-27T02:15:13.695Z,9.10
2022-12-27T02:17:41.402Z,9.23
2022-12-27T02:20:15.300Z,9.60
2022-12-27T02:23:36.133Z,22.87
2022-12-27T02:26:27.113Z,22.37
2022-12-27T02:29:17.817Z,14.03
2022-12-27T02:31:52.377Z,15.30
2022-12-27T02:34:25.362Z,41.00
2022-12-27T02:36:56.904Z,45.13
2022-12-27T02:39:25.913Z,35.20
2022-12-27T02:42:12.394Z,46.20
2022-12-27T02:45:10.420Z,61.27
2022-12-27T02:47:56.244Z,46.70
2022-12-27T02:50:57.499Z,42.83
2022-12-27T02:53:35.607Z,37.97
2022-12-27T02:56:34.516Z,30.67
2022-12-27T02:59:14.285Z,15.13
2022-12-27T03:02:11.463Z,9.93
2022-12-27T03:05:07.852Z,9.07
2022-12-27T03:07:41.902Z,13.00
2022-12-27T03:10:35.232Z,10.13
2022-12-27T03:13:34.926Z,9.67
2022-12-27T03:16:12.225Z,7.93
2022-12-27T03:18:55.573Z,7.87
2022-12-27T03:21:45.817Z,12.03
2022-12-27T03:24:32.634Z,12.37
2022-12-27T03:27:02.421Z,11.13
2022-12-27T03:29:48.259Z,7.60
2022-12-27T03:32:35.004Z,9.30
2022-12-27T03:35:10.886Z,8.93
2022-12-27T03:37:59.292Z,10.07
2022-12-27T03:40:38.799Z,11.33
2022-12-27T03:43:12.247Z,11.57
2022-12-27T03:46:14.637Z,12.53
2022-12-27T03:48:57.860Z,7.47
2022-12-27T03:51:31.044Z,10.37
2022-12-27T03:54:06.651Z,7.07
2022-12-27T03:56:34.586Z,6.30
2022-12-27T03:59:04.236Z,8.23
2022-12-27T04:01:32.059Z,6.57
2022-12-27T04:03:59.777Z,5.93
2022-12-27T04:06:28.818Z,7.90
2022-12-27T04:09:14.121Z,6.47
2022-12-27T04:11:59.527Z,5.37
2022-12-27T04:14:44.904Z,10.60
2022-12-27T04:17:30.255Z,5.80
2022-12-27T04:20:15.550Z,9.13
2022-12-27T04:23:02.224Z,9.57
2022-12-27T04:25:48.552Z,9.13
2022-12-27T04:28:33.909Z,9.60
2022-12-27T04:31:19.299Z,10.13
2022-12-27T04:34:04.570Z,8.63
2022-12-27T04:36:32.228Z,11.63
2022-12-27T04:39:01.224Z,5.87
2022-12-27T04:41:46.759Z,8.30
2022-12-27T04:44:32.090Z,5.80
2022-12-27T04:47:18.551Z,10.30
2022-12-27T04:50:03.818Z,7.93
2022-12-27T04:52:49.109Z,7.87
2022-12-27T04:55:21.858Z,4.77
2022-12-27T04:57:50.135Z,6.87
2022-12-27T05:00:37.268Z,7.07
2022-12-27T05:03:08.038Z,5.63
2022-12-27T05:05:37.350Z,10.27
2022-12-27T05:08:23.865Z,11.10
2022-12-27T05:11:10.629Z,10.47
2022-12-27T05:13:55.926Z,5.97
2022-12-27T05:16:23.858Z,7.97
2022-12-27T05:18:51.571Z,8.63
2022-12-27T05:21:19.270Z,7.23
2022-12-27T05:24:05.806Z,8.63
2022-12-27T05:26:35.690Z,7.73
2022-12-27T05:29:03.335Z,6.47
2022-12-27T05:31:31.151Z,6.10
2022-12-27T05:33:59.205Z,6.57
2022-12-27T05:36:28.146Z,5.93
2022-12-27T05:38:55.802Z,7.83
2022-12-27T05:41:23.806Z,9.23
2022-12-27T05:43:53.153Z,7.87
2022-12-27T05:46:22.825Z,8.23
2022-12-27T05:48:50.537Z,11.07
2022-12-27T05:51:20.183Z,8.37
2022-12-27T05:53:48.994Z,8.40
2022-12-27T05:56:18.609Z,10.10
2022-12-27T05:58:46.631Z,9.07
2022-12-27T06:01:17.441Z,9.70
2022-12-27T06:03:45.752Z,7.80
2022-12-27T06:06:14.352Z,13.90
2022-12-27T06:08:42.283Z,10.83
2022-12-27T06:11:11.935Z,8.47
2022-12-27T06:13:40.707Z,9.37
2022-12-27T06:16:11.207Z,10.30
2022-12-27T06:18:41.943Z,8.17
2022-12-27T06:21:11.371Z,11.80
2022-12-27T06:23:41.342Z,8.20
2022-12-27T06:26:10.345Z,9.03
2022-12-27T06:28:38.327Z,9.67
2022-12-27T06:31:06.477Z,11.77
2022-12-27T06:33:34.289Z,10.73
2022-12-27T06:36:08.674Z,6.83
2022-12-27T06:38:36.658Z,8.67
2022-12-27T06:41:04.723Z,7.07
2022-12-27T06:43:32.391Z,9.23
2022-12-27T06:46:02.140Z,9.03
2022-12-27T06:48:30.208Z,8.10
2022-12-27T06:50:58.066Z,9.27
2022-12-27T06:53:27.092Z,7.03
2022-12-27T06:55:54.735Z,11.47
2022-12-27T06:58:22.564Z,7.60
2022-12-27T07:00:50.710Z,7.97
2022-12-27T07:03:18.448Z,11.00
2022-12-27T07:05:46.123Z,10.93
2022-12-27T07:08:13.764Z,8.87
2022-12-27T07:10:42.814Z,9.87
2022-12-27T07:13:10.442Z,9.83
2022-12-27T07:15:39.844Z,7.03
2022-12-27T07:18:07.507Z,9.80
2022-12-27T07:20:35.403Z,8.07
2022-12-27T07:23:03.165Z,7.70
2022-12-27T07:25:31.584Z,6.27
2022-12-27T07:28:00.652Z,10.50
2022-12-27T07:30:29.448Z,8.93
2022-12-27T07:32:57.159Z,9.80
2022-12-27T07:35:24.877Z,11.00
2022-12-27T07:37:52.851Z,9.37
2022-12-27T07:40:20.611Z,7.60
2022-12-27T07:42:48.308Z,5.90
2022-12-27T07:45:17.572Z,8.70
2022-12-27T07:47:45.267Z,7.30
2022-12-27T07:50:12.956Z,5.23
2022-12-27T07:52:40.641Z,7.37
2022-12-27T07:55:08.709Z,6.60
2022-12-27T07:57:36.385Z,4.90
2022-12-27T08:00:05.064Z,8.43
2022-12-27T08:02:34.118Z,6.07
2022-12-27T08:05:01.822Z,10.10
2022-12-27T08:07:29.526Z,7.13
2022-12-27T08:09:57.672Z,9.00
2022-12-27T08:12:25.360Z,7.97
2022-12-27T08:14:53.001Z,9.63
2022-12-27T08:17:23.419Z,7.50
2022-12-27T08:19:54.525Z,4.47
2022-12-27T08:22:22.797Z,10.87
2022-12-27T08:24:51.130Z,9.50
2022-12-27T08:27:22.821Z,8.27
2022-12-27T08:29:51.023Z,6.40
2022-12-27T08:32:18.691Z,12.53
2022-12-27T08:34:46.328Z,10.03
2022-12-27T08:37:15.932Z,9.57
2022-12-27T08:39:43.712Z,7.80
2022-12-27T08:42:13.320Z,8.17
2022-12-27T08:44:41.068Z,9.73
2022-12-27T08:47:08.757Z,8.20
2022-12-27T08:49:36.386Z,9.53
2022-12-27T08:52:04.114Z,6.50
2022-12-27T08:54:33.142Z,7.20
2022-12-27T08:57:00.780Z,8.13
2022-12-27T08:59:28.446Z,7.00
2022-12-27T09:01:56.217Z,9.37
2022-12-27T09:04:24.107Z,7.87
2022-12-27T09:06:51.784Z,6.43
2022-12-27T09:09:19.588Z,7.77
2022-12-27T09:11:48.580Z,6.73
2022-12-27T09:14:16.267Z,9.03
2022-12-27T09:16:43.951Z,6.13
2022-12-27T09:19:11.647Z,9.67
2022-12-27T09:21:41.074Z,7.80
2022-12-27T09:24:11.775Z,7.57
2022-12-27T09:26:39.950Z,7.93
2022-12-27T09:29:09.247Z,6.70
2022-12-27T09:31:37.628Z,8.67
2022-12-27T09:34:05.289Z,10.17
2022-12-27T09:36:32.966Z,11.33
2022-12-27T09:39:01.287Z,8.53
2022-12-27T09:42:45.030Z,6.47
2022-12-27T09:44:50.826Z,7.43
2022-12-27T09:47:24.804Z,9.43
2022-12-27T09:49:56.249Z,11.23
2022-12-27T09:52:29.380Z,9.77
2022-12-27T09:55:05.269Z,8.47
2022-12-27T09:57:38.089Z,6.00
2022-12-27T10:00:15.689Z,9.57
2022-12-27T10:02:44.926Z,8.50
2022-12-27T10:05:21.994Z,7.80
2022-12-27T10:08:11.824Z,9.93
2022-12-27T10:10:44.161Z,7.93
2022-12-27T10:13:24.405Z,6.73
2022-12-27T10:16:00.764Z,9.87
2022-12-27T10:18:43.654Z,10.03
2022-12-27T10:21:20.019Z,7.70
2022-12-27T10:23:54.585Z,11.90
2022-12-27T10:26:22.613Z,6.47
2022-12-27T10:28:57.365Z,7.07
2022-12-27T10:31:26.881Z,8.23
2022-12-27T10:33:55.049Z,13.57
2022-12-27T10:36:25.030Z,8.40
2022-12-27T10:38:53.199Z,7.23
2022-12-27T10:41:34.491Z,9.27
2022-12-27T10:44:02.104Z,5.27
2022-12-27T10:46:33.652Z,10.03
2022-12-27T10:49:20.566Z,5.70
2022-12-27T10:51:50.038Z,9.63
2022-12-27T10:54:23.196Z,8.40
2022-12-27T10:56:51.349Z,6.77
2022-12-27T10:59:21.975Z,6.53
2022-12-27T11:02:09.072Z,8.27
2022-12-27T11:04:36.826Z,3.23
2022-12-27T11:07:17.443Z,7.60
2022-12-27T11:09:51.011Z,4.20
2022-12-27T11:12:21.659Z,6.57
2022-12-27T11:15:00.314Z,8.60
2022-12-27T11:17:34.528Z,2.83
2022-12-27T11:20:07.227Z,6.03
2022-12-27T11:22:43.273Z,8.23
2022-12-27T11:25:15.303Z,5.20
2022-12-27T11:27:46.570Z,4.63
2022-12-27T11:30:23.973Z,5.53
2022-12-27T11:32:53.852Z,5.13
2022-12-27T11:35:24.609Z,8.13
2022-12-27T11:37:52.912Z,4.63
2022-12-27T11:40:26.652Z,6.43
2022-12-27T11:43:01.255Z,6.63
2022-12-27T11:45:35.057Z,7.60
2022-12-27T11:48:12.424Z,7.20
2022-12-27T11:50:58.683Z,6.67
2022-12-27T11:54:09.431Z,6.00
2022-12-27T11:56:39.900Z,8.30
2022-12-27T11:59:29.584Z,7.83
2022-12-27T12:02:28.575Z,7.97
2022-12-27T12:05:38.992Z,8.17
2022-12-27T12:08:27.990Z,6.10
2022-12-27T12:11:07.232Z,9.73
2022-12-27T12:13:58.673Z,8.60
2022-12-27T12:17:05.188Z,7.27
2022-12-27T12:19:49.252Z,7.37
2022-12-27T12:22:37.650Z,7.43
2022-12-27T12:25:43.614Z,6.00
2022-12-27T12:31:42.917Z,7.30
2022-12-27T12:34:28.002Z,5.00
2022-12-27T12:37:13.293Z,8.47
2022-12-27T12:39:59.956Z,6.43
2022-12-27T12:42:36.835Z,13.10
2022-12-27T12:45:24.518Z,7.20
2022-12-27T12:48:30.838Z,9.80
2022-12-27T12:51:10.418Z,5.83
2022-12-27T12:53:51.609Z,6.37
2022-12-27T12:56:38.752Z,5.90
2022-12-27T12:59:22.725Z,7.67
2022-12-27T13:02:01.080Z,9.23
2022-12-27T13:05:02.880Z,7.73
2022-12-27T13:07:44.297Z,7.17
2022-12-27T13:10:37.750Z,7.10
2022-12-27T13:13:11.442Z,6.40
2022-12-27T13:15:54.344Z,11.43
2022-12-27T13:18:30.658Z,7.40
2022-12-27T13:21:10.914Z,4.47
2022-12-27T13:23:53.587Z,6.73
2022-12-27T13:26:26.068Z,8.47
2022-12-27T13:29:08.520Z,10.13
2022-12-27T13:31:45.141Z,11.30
2022-12-27T13:34:28.317Z,5.67
2022-12-27T13:37:12.196Z,6.20
2022-12-27T13:39:54.648Z,9.53
2022-12-27T13:42:45.314Z,6.70
2022-12-27T13:45:40.862Z,8.10
2022-12-27T13:48:24.063Z,8.30
2022-12-27T13:51:03.120Z,5.17
2022-12-27T13:54:22.578Z,5.10
2022-12-27T13:56:59.311Z,7.37
2022-12-27T13:59:48.097Z,7.03
2022-12-27T14:02:51.655Z,5.73
2022-12-27T14:05:46.929Z,4.80
2022-12-27T14:08:23.512Z,6.97
2022-12-27T14:11:00.519Z,8.30
2022-12-27T14:13:34.400Z,7.03
2022-12-27T14:16:31.389Z,5.83
2022-12-27T14:19:12.618Z,7.40
2022-12-27T14:21:59.788Z,6.80
2022-12-27T14:25:02.215Z,7.47
2022-12-27T14:28:08.645Z,8.10
2022-12-27T14:31:00.485Z,7.07
2022-12-27T14:34:08.291Z,6.23
2022-12-27T14:37:17.645Z,7.63
2022-12-27T14:40:16.668Z,5.23
2022-12-27T14:43:31.395Z,12.77
2022-12-27T14:46:28.789Z,6.23
2022-12-27T14:49:26.850Z,8.13
2022-12-27T14:55:27.505Z,9.07
2022-12-27T14:58:13.962Z,12.77
2022-12-27T15:01:03.058Z,7.53
2022-12-27T15:03:47.914Z,7.77
2022-12-27T15:06:23.106Z,12.97
2022-12-27T15:09:02.472Z,12.60
2022-12-27T15:11:54.961Z,10.37
2022-12-27T15:14:34.861Z,11.87
2022-12-27T15:17:15.861Z,8.80
2022-12-27T15:20:03.476Z,9.67
2022-12-27T15:22:40.909Z,10.73
2022-12-27T15:25:21.594Z,11.50
2022-12-27T15:27:58.657Z,15.17
2022-12-27T15:30:33.999Z,18.70
2022-12-27T15:33:05.976Z,17.60
2022-12-27T15:35:49.780Z,12.70
2022-12-27T15:38:19.468Z,11.13
2022-12-27T15:41:08.305Z,13.23
2022-12-27T15:44:26.645Z,7.50
2022-12-27T15:47:38.477Z,12.77
2022-12-27T15:50:29.217Z,15.07
2022-12-27T15:53:28.407Z,9.47
2022-12-27T15:56:31.596Z,12.07
2022-12-27T15:59:46.533Z,13.53
2022-12-27T16:02:34.195Z,14.77
2022-12-27T16:05:11.413Z,13.53
2022-12-27T16:07:43.820Z,15.80
2022-12-27T16:10:32.064Z,11.97
2022-12-27T16:13:02.680Z,14.03
2022-12-27T16:15:40.824Z,12.43
2022-12-27T16:18:49.465Z,15.13
2022-12-27T16:21:22.300Z,14.67
2022-12-27T16:23:55.724Z,16.13
2022-12-27T16:26:26.592Z,12.63
2022-12-27T16:28:57.852Z,17.87
2022-12-27T16:31:27.332Z,19.47
2022-12-27T16:33:57.308Z,12.33
2022-12-27T16:36:28.904Z,15.17
2022-12-27T16:39:15.816Z,11.37
2022-12-27T16:42:04.520Z,12.37
2022-12-27T16:44:47.204Z,14.87
2022-12-27T16:47:32.425Z,11.80
2022-12-27T16:50:08.915Z,13.50
2022-12-27T16:53:00.525Z,10.87
2022-12-27T16:56:07.053Z,9.00
2022-12-27T16:58:36.811Z,11.27
2022-12-27T17:01:06.141Z,9.50
2022-12-27T17:03:46.134Z,9.70
2022-12-27T17:06:55.119Z,12.80
2022-12-27T17:09:43.110Z,13.97
2022-12-27T17:12:27.437Z,14.37
2022-12-27T17:15:03.816Z,12.50
2022-12-27T17:17:32.241Z,7.67
2022-12-27T17:20:06.045Z,7.20
2022-12-27T17:22:35.811Z,6.90
2022-12-27T17:25:04.683Z,9.53
2022-12-27T17:27:43.553Z,5.07
2022-12-27T17:30:21.528Z,5.03
2022-12-27T17:33:02.700Z,8.77
2022-12-27T17:35:36.986Z,8.00
2022-12-27T17:38:18.575Z,9.30
2022-12-27T17:40:54.083Z,6.60
2022-12-27T17:43:51.392Z,12.83
2022-12-27T17:46:29.831Z,8.47
2022-12-27T17:48:58.673Z,10.20
2022-12-27T17:51:28.281Z,8.53
2022-12-27T17:54:15.001Z,9.03
2022-12-27T17:57:02.377Z,10.40
2022-12-27T17:59:33.979Z,8.07
2022-12-27T18:02:07.652Z,11.17
2022-12-27T18:04:39.289Z,14.80
2022-12-27T18:07:10.179Z,9.23
2022-12-27T18:09:41.830Z,10.77
2022-12-27T18:12:18.566Z,10.70
2022-12-27T18:14:53.284Z,16.03
2022-12-27T18:17:28.951Z,14.23
2022-12-27T18:19:57.354Z,18.10
2022-12-27T18:22:25.116Z,14.33
2022-12-27T18:24:52.881Z,12.30
2022-12-27T18:27:24.522Z,14.10
2022-12-27T18:29:53.544Z,9.60
2022-12-27T18:32:23.440Z,7.97
2022-12-27T18:34:55.177Z,6.57
2022-12-27T18:37:25.268Z,11.93
2022-12-27T18:39:56.184Z,8.33
2022-12-27T18:42:30.919Z,8.27
2022-12-27T18:45:03.641Z,5.13
2022-12-27T18:47:32.367Z,6.53
2022-12-27T18:50:02.828Z,8.87
2022-12-27T18:52:32.681Z,5.17
2022-12-27T18:55:13.631Z,6.10
2022-12-27T18:57:41.606Z,5.13
2022-12-27T19:00:22.620Z,8.80
2022-12-27T19:02:51.707Z,5.97
2022-12-27T19:05:30.473Z,9.50
2022-12-27T19:08:10.316Z,5.07
2022-12-27T19:10:40.165Z,10.07
2022-12-27T19:13:17.667Z,5.97
2022-12-27T19:15:46.769Z,7.60
2022-12-27T19:18:22.886Z,5.13
2022-12-27T19:20:55.752Z,9.73
2022-12-27T19:23:33.062Z,6.77
2022-12-27T19:26:05.589Z,6.87
2022-12-27T19:28:34.449Z,5.17
2022-12-27T19:31:16.377Z,5.50
2022-12-27T19:33:46.281Z,3.63
2022-12-27T19:36:14.712Z,7.63
2022-12-27T19:38:47.728Z,5.40
2022-12-27T19:41:16.457Z,5.00
2022-12-27T19:43:46.013Z,4.67
2022-12-27T19:46:15.582Z,5.03
2022-12-27T19:48:43.845Z,3.40
2022-12-27T19:51:16.154Z,3.83
2022-12-27T19:53:46.480Z,4.27
2022-12-27T19:56:14.313Z,3.57
2022-12-27T19:58:42.001Z,4.60
2022-12-27T20:01:09.863Z,2.27
2022-12-27T20:03:38.978Z,5.23
2022-12-27T20:06:13.057Z,3.13
2022-12-27T20:08:49.712Z,3.67
2022-12-27T20:11:19.406Z,2.07
2022-12-27T20:13:47.349Z,2.93
2022-12-27T20:16:18.291Z,7.03
2022-12-27T20:18:47.969Z,4.47
2022-12-27T20:21:18.108Z,5.33
2022-12-27T20:23:46.740Z,3.87
2022-12-27T20:26:18.017Z,3.67
2022-12-27T20:28:45.692Z,3.47
2022-12-27T20:31:16.854Z,6.97
2022-12-27T20:33:44.813Z,3.47
2022-12-27T20:36:13.976Z,5.10
2022-12-27T20:38:41.665Z,6.37
2022-12-27T20:41:10.761Z,1.93
2022-12-27T20:43:38.526Z,3.27
2022-12-27T20:46:07.627Z,3.40
2022-12-27T20:48:38.277Z,2.30
2022-12-27T20:51:10.268Z,7.93
2022-12-27T20:53:39.424Z,4.03
2022-12-27T20:56:09.100Z,4.67
2022-12-27T20:58:37.161Z,6.23
2022-12-27T21:01:08.941Z,6.00
2022-12-27T21:03:37.146Z,4.30
2022-12-27T21:06:09.980Z,5.80
2022-12-27T21:08:46.540Z,4.93
2022-12-27T21:11:17.812Z,4.20
2022-12-27T21:13:46.196Z,4.27
2022-12-27T21:16:16.023Z,3.67
2022-12-27T21:18:44.030Z,5.27
2022-12-27T21:21:14.443Z,6.13
2022-12-27T21:23:43.552Z,5.10
2022-12-27T21:26:13.442Z,7.60
2022-12-27T21:28:41.436Z,2.93
2022-12-27T21:31:09.865Z,4.40
2022-12-27T21:33:37.673Z,2.47
2022-12-27T21:36:07.931Z,4.20
2022-12-27T21:38:36.821Z,3.70
2022-12-27T21:41:08.370Z,4.10
2022-12-27T21:43:36.245Z,3.10
2022-12-27T21:46:06.557Z,4.87
2022-12-27T21:48:34.432Z,3.60
2022-12-27T21:51:05.880Z,3.80
2022-12-27T21:53:33.723Z,3.17
2022-12-27T21:56:01.567Z,2.53
2022-12-27T21:58:31.754Z,5.40
2022-12-27T22:01:08.388Z,5.30
2022-12-27T22:03:38.399Z,4.70
2022-12-27T22:06:13.590Z,4.30
2022-12-27T22:08:41.628Z,4.50
2022-12-27T22:11:09.828Z,4.43
2022-12-27T22:13:39.143Z,3.87
2022-12-27T22:16:09.417Z,2.73
2022-12-27T22:18:41.246Z,4.83
2022-12-27T22:21:09.900Z,6.10
2022-12-27T22:23:40.005Z,7.30
2022-12-27T22:26:11.750Z,4.73
2022-12-27T22:28:40.968Z,3.07
2022-12-27T22:31:09.560Z,3.10
2022-12-27T22:33:38.448Z,4.47
2022-12-27T22:36:08.052Z,4.13
2022-12-27T22:38:36.942Z,4.77
2022-12-27T22:41:06.419Z,3.93
2022-12-27T22:43:34.461Z,3.03
2022-12-27T22:46:06.845Z,6.03
2022-12-27T22:48:34.769Z,2.53
2022-12-27T22:51:07.631Z,4.57
2022-12-27T22:53:35.572Z,6.10
2022-12-27T22:56:03.214Z,4.33
2022-12-27T22:58:32.189Z,2.17
2022-12-27T23:01:00.535Z,4.73
2022-12-27T23:03:29.646Z,4.93
2022-12-27T23:05:58.712Z,2.63
2022-12-27T23:08:26.923Z,4.70
2022-12-27T23:10:54.835Z,5.10
2022-12-27T23:13:23.985Z,4.03
2022-12-27T23:15:57.778Z,3.00
2022-12-27T23:18:25.676Z,3.27
2022-12-27T23:21:20.135Z,3.87
2022-12-27T23:23:43.824Z,5.27
2022-12-27T23:26:16.451Z,4.20
2022-12-27T23:28:46.099Z,6.07
2022-12-27T23:31:14.942Z,5.33
2022-12-27T23:33:44.226Z,4.67
2022-12-27T23:36:14.847Z,3.33
2022-12-27T23:38:42.931Z,4.83
2022-12-27T23:41:15.703Z,5.20
2022-12-27T23:43:52.797Z,5.80
2022-12-27T23:46:23.751Z,5.20
2022-12-27T23:48:52.051Z,4.20
2022-12-27T23:51:22.200Z,3.97
2022-12-27T23:53:50.030Z,3.13
2022-12-27T23:56:19.341Z,3.17
2022-12-27T23:58:47.719Z,8.93
